Time;durP1;ratioP1;P1;durP2;ratioP2;P2;SDS_P1;SDS_P2;PMS_P1;PMS_P2;Temp;Humidity;BMP_temperature;BMP_pressure;BME280_temperature;BME280_humidity;BME280_pressure;Samples;Min_cycle;Max_cycle;Signal;HPM_P1;HPM_P2
2022/07/28 00:02:10;;;;;;;;;;;12.50;99.90;;;;;;4972931;28;19973;-80
2022/07/28 00:04:36;;;;;;;;;;;12.50;99.90;;;;;;4970099;28;19976;-80
2022/07/28 00:07:02;;;;;;;;;;;12.40;99.90;;;;;;4935879;28;19934;-80
2022/07/28 00:09:27;;;;;;;;;;;12.40;99.90;;;;;;4957208;28;19926;-80
2022/07/28 00:11:53;;;;;;;;;;;12.30;99.90;;;;;;4969327;28;19944;-79
2022/07/28 00:14:20;;;;;;;;;;;12.30;99.90;;;;;;4952949;28;20269;-79
2022/07/28 00:16:46;;;;;;;;;;;12.30;99.90;;;;;;4974900;28;19984;-80
2022/07/28 00:19:11;;;;;;;;;;;12.20;99.90;;;;;;4952704;28;20024;-80
2022/07/28 00:21:37;;;;;;;;;;;12.10;99.90;;;;;;4969858;28;20021;-80
2022/07/28 00:24:03;;;;;;;;;;;12.00;99.90;;;;;;4969140;28;19937;-80
2022/07/28 00:26:29;;;;;;;;;;;12.20;99.90;;;;;;4953785;28;19936;-80
2022/07/28 00:28:55;;;;;;;;;;;11.90;99.90;;;;;;4935241;28;19934;-80
2022/07/28 00:31:21;;;;;;;;;;;11.90;99.90;;;;;;4934449;29;19977;-80
2022/07/28 00:33:47;;;;;;;;;;;11.80;99.90;;;;;;4930680;29;20389;-79
2022/07/28 00:36:13;;;;;;;;;;;11.80;99.90;;;;;;4939475;28;19934;-80
2022/07/28 00:38:39;;;;;;;;;;;11.70;99.90;;;;;;4949284;28;19922;-80
2022/07/28 00:41:11;;;;;;;;;;;11.70;99.90;;;;;;4947015;28;20290;-81
2022/07/28 00:43:37;;;;;;;;;;;11.70;99.90;;;;;;4933714;28;19934;-80
2022/07/28 00:46:03;;;;;;;;;;;11.70;99.90;;;;;;4952115;28;20423;-79
2022/07/28 00:48:29;;;;;;;;;;;11.70;99.90;;;;;;4953295;28;19926;-80
2022/07/28 00:50:55;;;;;;;;;;;11.60;99.90;;;;;;4924462;28;19929;-80
2022/07/28 00:53:21;;;;;;;;;;;11.60;99.90;;;;;;4949243;28;19930;-79
2022/07/28 00:55:47;;;;;;;;;;;11.60;99.90;;;;;;4935101;28;20400;-80
2022/07/28 00:58:13;;;;;;;;;;;11.60;99.90;;;;;;4921718;28;19934;-79
2022/07/28 01:00:39;;;;;;;;;;;11.60;99.90;;;;;;4934943;28;20381;-80
2022/07/28 01:03:05;;;;;;;;;;;11.60;99.90;;;;;;4935474;28;20448;-80
2022/07/28 01:05:51;;;;;;;;;;;11.60;99.90;;;;;;4950521;28;20020;-80
2022/07/28 01:08:33;;;;;;;;;;;11.60;99.90;;;;;;4934433;28;19985;-80
2022/07/28 01:11:05;;;;;;;;;;;11.70;99.90;;;;;;4952344;28;20301;-80
2022/07/28 01:13:55;;;;;;;;;;;11.70;99.90;;;;;;4956349;28;20013;-80
2022/07/28 01:16:21;;;;;;;;;;;11.70;99.90;;;;;;4951397;28;20337;-80
2022/07/28 01:18:48;;;;;;;;;;;11.70;99.90;;;;;;4945089;28;19977;-80
2022/07/28 01:21:20;;;;;;;;;;;11.70;99.90;;;;;;4960938;28;19930;-80
2022/07/28 01:24:12;;;;;;;;;;;11.60;99.90;;;;;;4953400;28;19936;-80
2022/07/28 01:26:38;;;;;;;;;;;11.60;99.90;;;;;;4909059;28;19930;-79
2022/07/28 01:29:15;;;;;;;;;;;11.60;99.90;;;;;;4949715;28;19984;-79
2022/07/28 01:31:42;;;;;;;;;;;11.60;99.90;;;;;;4974563;28;20564;-80
2022/07/28 01:34:11;;;;;;;;;;;11.60;99.90;;;;;;4972124;28;20404;-80
2022/07/28 01:36:55;;;;;;;;;;;11.50;99.90;;;;;;4972128;28;19930;-80
2022/07/28 01:39:24;;;;;;;;;;;11.60;99.90;;;;;;4966490;28;19941;-81
2022/07/28 01:41:51;;;;;;;;;;;11.50;99.90;;;;;;4948632;28;20349;-79
2022/07/28 01:44:19;;;;;;;;;;;11.50;99.90;;;;;;4964545;28;19930;-80
2022/07/28 01:46:45;;;;;;;;;;;11.50;99.90;;;;;;4951281;28;19941;-80
2022/07/28 01:49:12;;;;;;;;;;;11.50;99.90;;;;;;4969252;28;19933;-79
2022/07/28 01:51:38;;;;;;;;;;;11.50;99.90;;;;;;4969054;28;19929;-80
2022/07/28 01:54:05;;;;;;;;;;;11.50;99.90;;;;;;4936906;28;19932;-78
2022/07/28 01:56:32;;;;;;;;;;;11.50;99.90;;;;;;4948628;28;19930;-79
2022/07/28 01:58:59;;;;;;;;;;;11.50;99.90;;;;;;4967578;28;20567;-79
2022/07/28 02:01:25;;;;;;;;;;;11.50;99.90;;;;;;4963948;28;19926;-79
2022/07/28 02:03:53;;;;;;;;;;;11.50;99.90;;;;;;4968652;28;20561;-79
2022/07/28 02:08:55;;;;;;;;;;;11.60;99.90;;;;;;5191871;23;19934;-76
2022/07/28 02:11:38;;;;;;;;;;;11.60;99.90;;;;;;4928662;28;20373;-77
2022/07/28 02:14:07;;;;;;;;;;;11.60;99.90;;;;;;4956589;28;19930;-76
2022/07/28 02:16:33;;;;;;;;;;;11.60;99.90;;;;;;4945378;28;20380;-77
2022/07/28 02:18:59;;;;;;;;;;;11.60;99.90;;;;;;4963710;28;20025;-77
2022/07/28 02:21:26;;;;;;;;;;;11.70;99.90;;;;;;4956714;28;19926;-77
2022/07/28 02:23:53;;;;;;;;;;;11.70;99.90;;;;;;4945768;28;19960;-76
2022/07/28 02:26:22;;;;;;;;;;;11.70;99.90;;;;;;4981242;28;20347;-78
2022/07/28 02:28:51;;;;;;;;;;;11.70;99.90;;;;;;4950553;28;20336;-76
2022/07/28 02:31:27;;;;;;;;;;;11.80;99.90;;;;;;4955524;28;19941;-77
2022/07/28 02:33:56;;;;;;;;;;;11.80;99.90;;;;;;4971812;28;20559;-75
2022/07/28 02:36:37;;;;;;;;;;;11.80;99.90;;;;;;4948057;28;20484;-76
2022/07/28 02:39:06;;;;;;;;;;;11.80;99.90;;;;;;4952009;28;19926;-76
2022/07/28 02:41:35;;;;;;;;;;;11.90;99.90;;;;;;4955804;23;20454;-76
2022/07/28 02:44:29;;;;;;;;;;;11.70;99.90;;;;;;4953356;28;19930;-75
2022/07/28 02:46:58;;;;;;;;;;;12.60;99.90;;;;;;4978915;28;19934;-77
2022/07/28 02:49:28;;;;;;;;;;;11.90;99.90;;;;;;4980363;28;19925;-76
2022/07/28 02:51:55;;;;;;;;;;;11.90;99.90;;;;;;4957625;28;19936;-76
2022/07/28 02:54:22;;;;;;;;;;;12.00;99.90;;;;;;4983170;28;19937;-76
2022/07/28 02:56:50;;;;;;;;;;;12.00;99.90;;;;;;5183762;23;20387;-76
2022/07/28 02:59:18;;;;;;;;;;;12.00;99.90;;;;;;4984943;28;19937;-76
2022/07/28 03:01:45;;;;;;;;;;;11.90;99.90;;;;;;4983653;28;19932;-76
2022/07/28 03:04:12;;;;;;;;;;;12.00;99.90;;;;;;4978137;28;19934;-77
2022/07/28 03:06:39;;;;;;;;;;;12.00;99.90;;;;;;4963203;23;19934;-77
2022/07/28 03:09:07;;;;;;;;;;;12.00;99.90;;;;;;4969839;28;19926;-77
2022/07/28 03:11:32;;;;;;;;;;;12.00;99.90;;;;;;4949611;28;19927;-76
2022/07/28 03:14:01;;;;;;;;;;;12.00;99.90;;;;;;4953087;28;20021;-77
2022/07/28 03:16:26;;;;;;;;;;;12.00;99.90;;;;;;4951174;28;20009;-76
2022/07/28 03:19:17;;;;;;;;;;;12.10;99.90;;;;;;4958000;23;19985;-77
2022/07/28 03:25:06;;;;;;;;;;;12.00;99.90;;;;;;4966481;28;19972;-76
2022/07/28 03:27:40;;;;;;;;;;;12.10;99.90;;;;;;4976455;28;20275;-76
2022/07/28 03:30:10;;;;;;;;;;;12.10;99.90;;;;;;4968824;28;20260;-77
2022/07/28 03:32:41;;;;;;;;;;;12.10;99.90;;;;;;4974273;28;19949;-76
2022/07/28 03:35:08;;;;;;;;;;;12.10;99.90;;;;;;4974180;28;19925;-76
2022/07/28 03:37:41;;;;;;;;;;;12.10;99.90;;;;;;4965819;28;19926;-77
2022/07/28 03:40:09;;;;;;;;;;;12.20;99.90;;;;;;4970656;28;20141;-76
2022/07/28 03:42:35;;;;;;;;;;;12.20;99.90;;;;;;4966871;28;20276;-77
2022/07/28 03:45:04;;;;;;;;;;;12.20;99.90;;;;;;4953098;28;19966;-77
2022/07/28 03:47:38;;;;;;;;;;;12.20;99.90;;;;;;4932288;23;19927;-77
2022/07/28 03:50:04;;;;;;;;;;;12.20;99.90;;;;;;4916516;29;20527;-77
2022/07/28 03:52:29;;;;;;;;;;;12.30;99.90;;;;;;4948935;29;19926;-77
2022/07/28 03:54:55;;;;;;;;;;;12.30;99.90;;;;;;4986592;23;19913;-77
2022/07/28 03:57:46;;;;;;;;;;;12.30;99.90;;;;;;4967082;28;19929;-77
2022/07/28 04:00:19;;;;;;;;;;;12.30;99.90;;;;;;4944775;28;19930;-77
2022/07/28 04:02:46;;;;;;;;;;;12.30;99.90;;;;;;4910683;28;19930;-77
2022/07/28 04:05:13;;;;;;;;;;;12.30;99.90;;;;;;4948135;28;19926;-76
2022/07/28 04:07:39;;;;;;;;;;;12.30;99.90;;;;;;4934017;29;19933;-76
2022/07/28 04:10:10;;;;;;;;;;;12.30;99.90;;;;;;4949964;28;19926;-77
2022/07/28 04:12:46;;;;;;;;;;;12.30;99.90;;;;;;4931703;29;20204;-77
2022/07/28 04:15:13;;;;;;;;;;;12.20;99.90;;;;;;4933129;29;20738;-76
2022/07/28 04:17:39;;;;;;;;;;;12.80;99.90;;;;;;4931831;29;19933;-76
2022/07/28 04:20:08;;;;;;;;;;;12.20;99.90;;;;;;4931548;29;19927;-77
2022/07/28 04:22:47;;;;;;;;;;;12.20;99.90;;;;;;4952090;28;19937;-77
2022/07/28 04:25:14;;;;;;;;;;;12.20;99.90;;;;;;4947370;28;19985;-77
2022/07/28 04:27:41;;;;;;;;;;;12.20;99.90;;;;;;4931303;29;19965;-77
2022/07/28 04:30:12;;;;;;;;;;;12.20;99.90;;;;;;4929160;28;20236;-77
2022/07/28 04:32:38;;;;;;;;;;;12.20;99.90;;;;;;4928675;29;19938;-77
2022/07/28 04:35:04;;;;;;;;;;;12.30;99.90;;;;;;4933779;28;19934;-77
2022/07/28 04:37:30;;;;;;;;;;;12.30;99.90;;;;;;4951574;28;19985;-76
2022/07/28 04:39:56;;;;;;;;;;;12.30;99.90;;;;;;4915205;28;19934;-76
2022/07/28 04:42:25;;;;;;;;;;;12.30;99.90;;;;;;4957988;28;20396;-77
2022/07/28 04:44:50;;;;;;;;;;;12.30;99.90;;;;;;4931401;28;19953;-77
2022/07/28 04:47:17;;;;;;;;;;;12.40;99.90;;;;;;4934194;29;19926;-77
2022/07/28 04:49:43;;;;;;;;;;;12.40;99.90;;;;;;4949635;28;19982;-76
2022/07/28 04:52:08;;;;;;;;;;;12.40;99.90;;;;;;4939072;29;19975;-77
2022/07/28 04:54:35;;;;;;;;;;;12.50;99.90;;;;;;4950891;28;19926;-75
2022/07/28 04:57:01;;;;;;;;;;;12.50;99.90;;;;;;5035396;23;19953;-76
2022/07/28 04:59:55;;;;;;;;;;;12.50;99.90;;;;;;4959516;28;19957;-76
2022/07/28 05:02:21;;;;;;;;;;;12.50;99.90;;;;;;4954841;28;19933;-77
2022/07/28 05:04:46;;;;;;;;;;;12.60;99.90;;;;;;4971600;28;19956;-77
2022/07/28 05:07:12;;;;;;;;;;;12.60;99.90;;;;;;4953796;28;19926;-77
2022/07/28 05:09:38;;;;;;;;;;;12.60;99.90;;;;;;4969275;28;19936;-76
2022/07/28 05:12:05;;;;;;;;;;;12.70;99.90;;;;;;4959724;28;20446;-77
2022/07/28 05:14:31;;;;;;;;;;;12.70;99.90;;;;;;4953987;28;19930;-78
2022/07/28 05:16:58;;;;;;;;;;;12.70;99.90;;;;;;4972466;28;19925;-78
2022/07/28 05:19:24;;;;;;;;;;;12.80;99.90;;;;;;4963986;28;19996;-78
2022/07/28 05:21:50;;;;;;;;;;;12.80;99.90;;;;;;4974830;28;19926;-76
2022/07/28 05:24:16;;;;;;;;;;;12.90;99.90;;;;;;4973996;28;19925;-77
2022/07/28 05:26:42;;;;;;;;;;;12.80;99.90;;;;;;4966765;28;20410;-76
2022/07/28 05:29:07;;;;;;;;;;;12.90;99.90;;;;;;4968219;28;20070;-77
2022/07/28 05:31:33;;;;;;;;;;;13.00;99.90;;;;;;4967289;28;19929;-77
2022/07/28 05:33:59;;;;;;;;;;;13.10;99.90;;;;;;4952574;28;19933;-77
2022/07/28 05:36:25;;;;;;;;;;;13.10;99.90;;;;;;4955266;28;19984;-77
2022/07/28 05:38:51;;;;;;;;;;;13.20;99.90;;;;;;4970525;28;19929;-76
2022/07/28 05:41:17;;;;;;;;;;;13.30;99.90;;;;;;4954905;28;20240;-77
2022/07/28 05:43:42;;;;;;;;;;;13.30;99.90;;;;;;4936132;28;19926;-76
2022/07/28 05:46:09;;;;;;;;;;;13.30;99.90;;;;;;4969214;28;19937;-77
2022/07/28 05:48:34;;;;;;;;;;;13.40;99.90;;;;;;4967593;28;20049;-77
2022/07/28 05:51:07;;;;;;;;;;;13.40;99.90;;;;;;4968898;28;19933;-77
2022/07/28 05:53:32;;;;;;;;;;;13.50;99.90;;;;;;4948645;28;19988;-77
2022/07/28 05:56:01;;;;;;;;;;;13.60;99.90;;;;;;4969198;28;19930;-77
2022/07/28 05:58:27;;;;;;;;;;;13.60;99.90;;;;;;4955868;28;19926;-77
2022/07/28 06:00:56;;;;;;;;;;;13.70;99.90;;;;;;4952982;28;19926;-77
2022/07/28 06:03:22;;;;;;;;;;;13.80;99.90;;;;;;4973486;28;19987;-77
2022/07/28 06:05:49;;;;;;;;;;;13.80;99.90;;;;;;4972452;28;20895;-78
2022/07/28 06:08:17;;;;;;;;;;;13.80;99.90;;;;;;4956903;28;20410;-78
2022/07/28 06:11:16;;;;;;;;;;;13.90;99.90;;;;;;4956743;28;19937;-77
2022/07/28 06:13:41;;;;;;;;;;;14.00;99.90;;;;;;4950431;28;20493;-83
2022/07/28 06:16:07;;;;;;;;;;;14.00;99.90;;;;;;4952774;28;19930;-83
2022/07/28 06:18:33;;;;;;;;;;;14.10;99.90;;;;;;4951318;28;19926;-82
2022/07/28 06:20:59;;;;;;;;;;;14.20;99.90;;;;;;4950914;28;19930;-83
2022/07/28 06:23:24;;;;;;;;;;;14.20;99.90;;;;;;4962950;28;19972;-83
2022/07/28 06:25:51;;;;;;;;;;;14.30;99.90;;;;;;4938278;28;19930;-83
2022/07/28 06:28:20;;;;;;;;;;;14.30;99.90;;;;;;4943164;28;19991;-82
2022/07/28 06:30:47;;;;;;;;;;;14.40;99.90;;;;;;4971195;28;20019;-82
2022/07/28 06:33:16;;;;;;;;;;;14.40;99.90;;;;;;4957887;28;20040;-82
2022/07/28 06:35:42;;;;;;;;;;;14.40;99.90;;;;;;4970421;28;19930;-83
2022/07/28 06:38:08;;;;;;;;;;;14.40;99.90;;;;;;4956118;28;20313;-83
2022/07/28 06:40:34;;;;;;;;;;;14.40;99.90;;;;;;4939603;28;19926;-82
2022/07/28 06:43:00;;;;;;;;;;;14.40;99.90;;;;;;4940071;28;20336;-83
2022/07/28 06:45:26;;;;;;;;;;;14.30;99.90;;;;;;4937361;28;19937;-82
2022/07/28 06:47:52;;;;;;;;;;;14.50;99.90;;;;;;4955268;28;20033;-82
2022/07/28 06:50:18;;;;;;;;;;;14.50;99.90;;;;;;4965223;28;19945;-82
2022/07/28 06:52:44;;;;;;;;;;;14.50;99.90;;;;;;4953740;28;19932;-82
2022/07/28 06:55:11;;;;;;;;;;;14.50;99.90;;;;;;4937393;28;19934;-84
2022/07/28 06:57:37;;;;;;;;;;;14.50;99.90;;;;;;4942561;28;20277;-81
2022/07/28 07:00:03;;;;;;;;;;;14.30;99.90;;;;;;4955299;28;19925;-82
2022/07/28 07:02:29;;;;;;;;;;;14.40;99.90;;;;;;4955447;28;19930;-83
2022/07/28 07:04:55;;;;;;;;;;;14.30;99.90;;;;;;4938818;28;19989;-83
2022/07/28 07:07:22;;;;;;;;;;;14.30;99.90;;;;;;4954016;28;19981;-84
2022/07/28 07:09:48;;;;;;;;;;;14.20;99.90;;;;;;4974291;28;19932;-84
2022/07/28 07:12:14;;;;;;;;;;;14.20;99.90;;;;;;4960874;28;19938;-83
2022/07/28 07:14:39;;;;;;;;;;;14.20;99.90;;;;;;4941174;28;19973;-83
2022/07/28 07:17:05;;;;;;;;;;;14.30;99.90;;;;;;4941187;28;19925;-84
2022/07/28 07:19:32;;;;;;;;;;;14.30;99.90;;;;;;4949350;28;20003;-85
2022/07/28 07:21:58;;;;;;;;;;;14.30;99.90;;;;;;4958446;28;20008;-84
2022/07/28 07:24:24;;;;;;;;;;;14.30;99.90;;;;;;4971111;28;20377;-81
2022/07/28 07:26:50;;;;;;;;;;;14.30;99.90;;;;;;4955679;28;20550;-83
2022/07/28 07:29:16;;;;;;;;;;;14.30;99.90;;;;;;4959335;28;19969;-84
2022/07/28 07:31:42;;;;;;;;;;;14.30;99.90;;;;;;4954201;28;20428;-82
2022/07/28 07:34:08;;;;;;;;;;;14.30;99.90;;;;;;4938269;28;19981;-82
2022/07/28 07:36:34;;;;;;;;;;;14.30;99.90;;;;;;4969860;28;20300;-79
2022/07/28 07:38:59;;;;;;;;;;;14.40;99.90;;;;;;4952357;28;19929;-83
2022/07/28 07:41:25;;;;;;;;;;;14.40;99.90;;;;;;4958870;28;19926;-79
2022/07/28 07:43:51;;;;;;;;;;;14.30;99.90;;;;;;4938468;28;19956;-81
2022/07/28 07:46:17;;;;;;;;;;;14.40;99.90;;;;;;4954295;28;19926;-81
2022/07/28 07:48:43;;;;;;;;;;;14.40;99.90;;;;;;4960357;28;19941;-82
2022/07/28 07:51:09;;;;;;;;;;;14.40;99.90;;;;;;4939164;28;19934;-82
2022/07/28 07:53:35;;;;;;;;;;;14.40;99.90;;;;;;4956308;28;20025;-82
2022/07/28 07:56:00;;;;;;;;;;;14.40;99.90;;;;;;4942043;28;19926;-81
2022/07/28 07:58:26;;;;;;;;;;;14.40;99.90;;;;;;4937934;28;20432;-81
2022/07/28 08:00:52;;;;;;;;;;;14.50;99.90;;;;;;4971024;28;19941;-85
2022/07/28 08:03:18;;;;;;;;;;;14.60;99.90;;;;;;4954898;28;19930;-81
2022/07/28 08:05:44;;;;;;;;;;;14.60;99.90;;;;;;4950959;28;19932;-84
2022/07/28 08:08:10;;;;;;;;;;;14.70;99.90;;;;;;4958924;28;20447;-83
2022/07/28 08:10:36;;;;;;;;;;;14.80;99.90;;;;;;4953787;28;19926;-81
2022/07/28 08:13:03;;;;;;;;;;;14.90;99.90;;;;;;4967697;28;19926;-85
2022/07/28 08:15:29;;;;;;;;;;;15.00;99.90;;;;;;4954862;28;19937;-83
2022/07/28 08:17:55;;;;;;;;;;;15.00;99.90;;;;;;4953700;28;20313;-82
2022/07/28 08:20:21;;;;;;;;;;;15.10;99.90;;;;;;4952279;28;19941;-82
2022/07/28 08:22:51;;;;;;;;;;;15.20;99.90;;;;;;4954359;28;20012;-83
2022/07/28 08:25:17;;;;;;;;;;;15.30;99.90;;;;;;4959256;28;19926;-80
2022/07/28 08:27:43;;;;;;;;;;;15.40;99.90;;;;;;4988494;28;19961;-81
2022/07/28 08:30:10;;;;;;;;;;;15.50;99.90;;;;;;4931311;28;19984;-83
2022/07/28 08:32:36;;;;;;;;;;;15.60;99.90;;;;;;4980631;28;20392;-81
2022/07/28 08:35:02;;;;;;;;;;;15.60;99.90;;;;;;4970085;28;19926;-82
2022/07/28 08:37:28;;;;;;;;;;;15.70;99.90;;;;;;4954315;28;19926;-81
2022/07/28 08:39:54;;;;;;;;;;;15.70;99.90;;;;;;4969900;28;19926;-82
2022/07/28 08:42:26;;;;;;;;;;;15.80;99.90;;;;;;4934702;28;19985;-78
2022/07/28 08:44:54;;;;;;;;;;;15.90;99.90;;;;;;4979125;28;19926;-81
2022/07/28 08:47:20;;;;;;;;;;;16.10;99.90;;;;;;4953925;28;19925;-80
2022/07/28 08:49:47;;;;;;;;;;;16.20;99.90;;;;;;4953169;28;19967;-81
2022/07/28 08:52:13;;;;;;;;;;;16.30;99.90;;;;;;4954610;28;19933;-79
2022/07/28 08:54:40;;;;;;;;;;;16.50;99.90;;;;;;4970689;28;19929;-82
2022/07/28 08:57:07;;;;;;;;;;;16.50;99.90;;;;;;4958826;28;19930;-77
2022/07/28 08:59:33;;;;;;;;;;;16.60;99.90;;;;;;4950979;28;20017;-79
2022/07/28 09:01:59;;;;;;;;;;;16.70;99.90;;;;;;4948927;28;19969;-86
2022/07/28 09:04:25;;;;;;;;;;;16.80;99.90;;;;;;4949138;28;19995;-80
2022/07/28 09:06:51;;;;;;;;;;;17.00;99.90;;;;;;4951788;28;19930;-81
2022/07/28 09:09:16;;;;;;;;;;;17.10;99.90;;;;;;4936766;28;20431;-81
2022/07/28 09:11:42;;;;;;;;;;;17.20;99.90;;;;;;4937906;28;19930;-82
2022/07/28 09:14:08;;;;;;;;;;;17.40;99.90;;;;;;4953496;28;19979;-80
2022/07/28 09:16:34;;;;;;;;;;;17.60;99.90;;;;;;4968630;28;19933;-84
2022/07/28 09:18:59;;;;;;;;;;;17.80;99.90;;;;;;4953229;28;19933;-82
2022/07/28 09:21:25;;;;;;;;;;;18.00;99.90;;;;;;4940118;28;19933;-82
2022/07/28 09:23:52;;;;;;;;;;;18.20;99.90;;;;;;4951784;28;19969;-81
2022/07/28 09:26:17;;;;;;;;;;;18.30;99.90;;;;;;4964925;28;19937;-79
2022/07/28 09:28:48;;;;;;;;;;;18.30;99.90;;;;;;4933776;28;19926;-81
2022/07/28 09:31:14;;;;;;;;;;;18.40;99.90;;;;;;4965702;28;19948;-85
2022/07/28 09:33:51;;;;;;;;;;;18.70;99.90;;;;;;4943942;28;19926;-81
2022/07/28 09:36:16;;;;;;;;;;;19.10;99.90;;;;;;4968803;28;20020;-83
2022/07/28 09:38:43;;;;;;;;;;;19.70;99.90;;;;;;4981284;23;20021;-86
2022/07/28 09:41:09;;;;;;;;;;;20.00;99.90;;;;;;5003351;28;20438;-87
2022/07/28 09:43:39;;;;;;;;;;;19.80;99.90;;;;;;4992072;28;19926;-82
2022/07/28 09:46:10;;;;;;;;;;;19.50;99.90;;;;;;4995132;28;20310;-84
2022/07/28 09:48:48;;;;;;;;;;;19.20;99.90;;;;;;4979656;28;19932;-88
2022/07/28 09:51:14;;;;;;;;;;;19.00;99.90;;;;;;4985068;28;19932;-81
2022/07/28 09:53:40;;;;;;;;;;;18.80;99.90;;;;;;4970083;28;19977;-85
2022/07/28 09:56:06;;;;;;;;;;;18.60;99.90;;;;;;4977790;28;19929;-87
2022/07/28 09:58:32;;;;;;;;;;;18.50;99.90;;;;;;4982645;28;19933;-87
2022/07/28 10:01:05;;;;;;;;;;;18.40;99.90;;;;;;4968183;28;20029;-85
2022/07/28 10:03:30;;;;;;;;;;;18.30;99.90;;;;;;4982410;28;19925;-82
2022/07/28 10:05:57;;;;;;;;;;;18.20;99.90;;;;;;4988248;28;19929;-87
2022/07/28 10:08:41;;;;;;;;;;;18.10;99.90;;;;;;4978968;28;20233;-85
2022/07/28 10:11:06;;;;;;;;;;;18.10;99.90;;;;;;4994328;28;19929;-81
2022/07/28 10:13:32;;;;;;;;;;;18.50;99.90;;;;;;4978881;28;20463;-85
2022/07/28 10:16:11;;;;;;;;;;;19.00;99.90;;;;;;4978294;28;20026;-86
2022/07/28 10:18:40;;;;;;;;;;;19.60;99.90;;;;;;4984811;28;19929;-83
2022/07/28 10:21:07;;;;;;;;;;;20.00;99.90;;;;;;4982392;28;19952;-82
2022/07/28 10:23:35;;;;;;;;;;;20.30;99.90;;;;;;4993475;28;19963;-84
2022/07/28 10:26:03;;;;;;;;;;;20.40;99.90;;;;;;4978861;28;19975;-83
2022/07/28 10:28:30;;;;;;;;;;;20.50;99.90;;;;;;4998942;28;19952;-82
2022/07/28 10:31:00;;;;;;;;;;;20.70;99.90;;;;;;4959277;28;19934;-86
2022/07/28 10:33:29;;;;;;;;;;;21.10;99.90;;;;;;4974941;28;19956;-85
2022/07/28 10:35:55;;;;;;;;;;;21.30;99.90;;;;;;4998941;28;19933;-86
2022/07/28 10:38:21;;;;;;;;;;;21.50;99.90;;;;;;4967038;28;19936;-81
2022/07/28 10:40:48;;;;;;;;;;;21.70;99.90;;;;;;4984472;28;19931;-82
2022/07/28 10:43:14;;;;;;;;;;;21.60;99.90;;;;;;4978923;28;19929;-85
2022/07/28 10:45:40;;;;;;;;;;;21.70;99.00;;;;;;4974050;28;19964;-81
2022/07/28 10:48:06;;;;;;;;;;;21.80;99.20;;;;;;4981012;28;19976;-83
2022/07/28 10:50:33;;;;;;;;;;;21.80;98.60;;;;;;4982573;28;19929;-81
2022/07/28 10:53:01;;;;;;;;;;;21.50;97.40;;;;;;4982098;28;20029;-86
2022/07/28 10:55:37;;;;;;;;;;;21.20;98.30;;;;;;4994883;28;20404;-81
2022/07/28 10:58:02;;;;;;;;;;;20.80;98.00;;;;;;4978328;28;19925;-85
2022/07/28 11:00:32;;;;;;;;;;;20.60;99.40;;;;;;4984249;28;19922;-81
2022/07/28 11:02:59;;;;;;;;;;;20.30;99.90;;;;;;4993152;28;19925;-82
2022/07/28 11:05:38;;;;;;;;;;;20.10;99.90;;;;;;4986187;28;19987;-80
2022/07/28 11:08:08;;;;;;;;;;;19.90;99.90;;;;;;5000851;28;19990;-83
2022/07/28 11:10:50;;;;;;;;;;;19.60;99.90;;;;;;5013449;28;20227;-83
2022/07/28 11:13:26;;;;;;;;;;;19.40;99.90;;;;;;4966069;28;19945;-81
2022/07/28 11:15:53;;;;;;;;;;;19.20;99.90;;;;;;4979952;28;19930;-82
2022/07/28 11:18:18;;;;;;;;;;;19.00;99.90;;;;;;4993302;28;19933;-84
2022/07/28 11:20:56;;;;;;;;;;;18.90;99.90;;;;;;4991771;28;19944;-84
2022/07/28 11:23:39;;;;;;;;;;;18.80;99.90;;;;;;4978708;28;19941;-82
2022/07/28 11:26:33;;;;;;;;;;;18.70;99.90;;;;;;4981856;28;20303;-80
2022/07/28 11:28:59;;;;;;;;;;;18.60;99.90;;;;;;4995006;28;19930;-82
2022/07/28 11:31:43;;;;;;;;;;;18.50;99.90;;;;;;4996683;28;19925;-90
2022/07/28 11:34:19;;;;;;;;;;;18.40;99.90;;;;;;4983694;28;19933;-84
2022/07/28 11:36:57;;;;;;;;;;;18.40;99.90;;;;;;5008801;28;20427;-81
2022/07/28 11:39:26;;;;;;;;;;;18.50;99.90;;;;;;4994993;28;19930;-85
2022/07/28 11:41:53;;;;;;;;;;;18.50;99.90;;;;;;4960914;28;19980;-87
2022/07/28 11:44:31;;;;;;;;;;;18.50;99.90;;;;;;4951259;28;19925;-86
2022/07/28 11:47:16;;;;;;;;;;;18.40;99.90;;;;;;4970517;28;19934;-83
2022/07/28 11:49:42;;;;;;;;;;;18.50;99.90;;;;;;4971041;28;20399;-83
2022/07/28 11:52:10;;;;;;;;;;;18.50;99.90;;;;;;4950424;28;19926;-82
2022/07/28 11:54:36;;;;;;;;;;;18.60;99.90;;;;;;4983669;28;19944;-84
2022/07/28 11:57:03;;;;;;;;;;;18.60;99.90;;;;;;4985493;28;19936;-84
2022/07/28 11:59:42;;;;;;;;;;;18.70;99.90;;;;;;4949224;28;19952;-82
2022/07/28 12:02:08;;;;;;;;;;;18.70;99.90;;;;;;4960476;28;19933;-83
2022/07/28 12:04:34;;;;;;;;;;;18.80;99.90;;;;;;4973535;28;19980;-83
2022/07/28 12:07:01;;;;;;;;;;;18.90;99.90;;;;;;4961426;28;19984;-83
2022/07/28 12:09:31;;;;;;;;;;;18.90;99.90;;;;;;4966280;28;20285;-82
2022/07/28 12:11:57;;;;;;;;;;;19.00;99.90;;;;;;4975644;28;19938;-83
2022/07/28 12:14:23;;;;;;;;;;;19.10;99.90;;;;;;4934245;28;20316;-84
2022/07/28 12:16:50;;;;;;;;;;;19.10;99.90;;;;;;4958873;28;19929;-85
2022/07/28 12:19:16;;;;;;;;;;;19.20;99.90;;;;;;4960875;28;19926;-86
2022/07/28 12:21:49;;;;;;;;;;;19.30;99.90;;;;;;4942638;28;19984;-85
2022/07/28 12:24:16;;;;;;;;;;;19.40;99.90;;;;;;4967234;28;19933;-86
2022/07/28 12:26:44;;;;;;;;;;;19.40;99.90;;;;;;4960443;28;19939;-84
2022/07/28 12:29:11;;;;;;;;;;;19.50;99.90;;;;;;4978916;28;20347;-81
2022/07/28 12:31:37;;;;;;;;;;;19.50;99.90;;;;;;4941452;28;19937;-86
2022/07/28 12:34:08;;;;;;;;;;;19.50;99.90;;;;;;4960413;28;19930;-82
2022/07/28 12:36:35;;;;;;;;;;;19.50;99.90;;;;;;4965983;28;20466;-84
2022/07/28 12:39:01;;;;;;;;;;;19.60;99.90;;;;;;4979346;28;20821;-85
2022/07/28 12:41:34;;;;;;;;;;;19.70;99.90;;;;;;4974829;28;19940;-83
2022/07/28 12:44:02;;;;;;;;;;;19.70;99.90;;;;;;4983712;28;20445;-86
2022/07/28 12:46:28;;;;;;;;;;;19.80;99.90;;;;;;4973147;28;19925;-87
2022/07/28 12:48:55;;;;;;;;;;;19.80;99.90;;;;;;4983442;28;19925;-85
2022/07/28 12:51:35;;;;;;;;;;;19.90;99.90;;;;;;4970822;28;19937;-85
2022/07/28 12:54:02;;;;;;;;;;;20.00;99.90;;;;;;4978455;28;19933;-84
2022/07/28 12:56:27;;;;;;;;;;;20.10;99.90;;;;;;4977916;28;20016;-84
2022/07/28 12:59:07;;;;;;;;;;;20.10;99.90;;;;;;4980361;28;20024;-87
2022/07/28 13:01:51;;;;;;;;;;;20.10;99.90;;;;;;4995326;28;19929;-87
2022/07/28 13:04:37;;;;;;;;;;;20.00;99.90;;;;;;4984559;28;19925;-86
2022/07/28 13:07:08;;;;;;;;;;;19.90;99.90;;;;;;4982886;28;19922;-86
2022/07/28 13:09:36;;;;;;;;;;;19.80;99.90;;;;;;4995150;28;19968;-84
2022/07/28 13:12:02;;;;;;;;;;;19.80;99.90;;;;;;4978800;28;19925;-83
2022/07/28 13:14:37;;;;;;;;;;;19.80;99.90;;;;;;4978877;28;19932;-84
2022/07/28 13:17:03;;;;;;;;;;;19.90;99.90;;;;;;4975676;28;19930;-85
2022/07/28 13:19:30;;;;;;;;;;;19.80;99.90;;;;;;4979297;28;19934;-86
2022/07/28 13:21:58;;;;;;;;;;;19.80;99.90;;;;;;4976664;28;20412;-86
2022/07/28 13:24:24;;;;;;;;;;;19.90;99.90;;;;;;4980094;28;19932;-79
2022/07/28 13:26:50;;;;;;;;;;;19.80;99.90;;;;;;4995048;28;19976;-88
2022/07/28 13:29:16;;;;;;;;;;;19.80;99.90;;;;;;4978765;28;20345;-87
2022/07/28 13:31:42;;;;;;;;;;;19.90;99.90;;;;;;4984727;28;19991;-82
2022/07/28 13:34:09;;;;;;;;;;;19.90;99.90;;;;;;4993735;28;19968;-82
2022/07/28 13:36:35;;;;;;;;;;;19.90;99.90;;;;;;4993286;28;19984;-85
2022/07/28 13:39:02;;;;;;;;;;;19.90;99.90;;;;;;4988593;28;19933;-80
2022/07/28 13:41:28;;;;;;;;;;;19.90;99.90;;;;;;4972673;28;20005;-88
2022/07/28 13:43:57;;;;;;;;;;;19.90;99.90;;;;;;4974522;28;20402;-84
2022/07/28 13:46:25;;;;;;;;;;;19.90;99.90;;;;;;4967704;28;19936;-83
2022/07/28 13:48:51;;;;;;;;;;;19.90;99.90;;;;;;4978322;28;19934;-87
2022/07/28 13:51:17;;;;;;;;;;;19.90;99.90;;;;;;4978711;28;20257;-82
2022/07/28 13:53:43;;;;;;;;;;;19.90;99.90;;;;;;4979349;28;19973;-86
2022/07/28 13:56:09;;;;;;;;;;;19.90;99.90;;;;;;4974126;28;19975;-85
2022/07/28 13:58:35;;;;;;;;;;;19.90;99.90;;;;;;4960806;28;20708;-83
2022/07/28 14:01:02;;;;;;;;;;;19.80;99.90;;;;;;4988037;28;20008;-81
2022/07/28 14:03:28;;;;;;;;;;;19.80;99.90;;;;;;4979584;28;19933;-84
2022/07/28 14:05:55;;;;;;;;;;;19.90;99.90;;;;;;4982272;28;19949;-84
2022/07/28 14:08:20;;;;;;;;;;;19.80;99.90;;;;;;4979601;28;19995;-83
2022/07/28 14:10:47;;;;;;;;;;;19.60;99.90;;;;;;4996714;28;20435;-84
2022/07/28 14:13:13;;;;;;;;;;;19.70;99.90;;;;;;5009960;28;20139;-86
2022/07/28 14:15:40;;;;;;;;;;;19.80;99.80;;;;;;4989826;28;19933;-84
2022/07/28 14:18:07;;;;;;;;;;;19.80;99.90;;;;;;4993321;28;19930;-82
2022/07/28 14:20:33;;;;;;;;;;;19.80;99.90;;;;;;4996503;28;20036;-84
2022/07/28 14:22:59;;;;;;;;;;;19.80;99.90;;;;;;5016587;28;20053;-84
2022/07/28 14:25:25;;;;;;;;;;;19.90;99.90;;;;;;4990295;28;20021;-82
2022/07/28 14:27:52;;;;;;;;;;;19.90;99.90;;;;;;4983620;28;19925;-82
2022/07/28 14:30:18;;;;;;;;;;;20.00;99.90;;;;;;4980563;28;20355;-80